createdAt,value
2023-12-01T00:02:34.388Z,96324.77
2023-12-01T00:06:20.827Z,96332.20
2023-12-01T00:10:07.033Z,96327.61
2023-12-01T00:13:39.561Z,96312.59
2023-12-01T00:17:19.058Z,96316.29
2023-12-01T00:21:05.436Z,96329.00
2023-12-01T00:24:34.647Z,96320.66
2023-12-01T00:28:04.636Z,96327.14
2023-12-01T00:31:50.759Z,96336.05
2023-12-01T00:35:18.485Z,96342.11
2023-12-01T00:38:35.195Z,96351.37
2023-12-01T00:42:21.417Z,96323.81
2023-12-01T00:46:20.560Z,96330.53
2023-12-01T00:50:06.625Z,96312.77
2023-12-01T00:53:53.227Z,96311.02
2023-12-01T00:57:39.718Z,96320.71
2023-12-01T01:01:29.001Z,96332.25
2023-12-01T01:05:15.283Z,96336.67
2023-12-01T01:08:44.101Z,96337.80
2023-12-01T01:12:28.842Z,96350.32
2023-12-01T01:16:10.550Z,96353.44
2023-12-01T01:19:56.884Z,96329.85
2023-12-01T01:23:43.590Z,96323.08
2023-12-01T01:27:29.773Z,96315.01
2023-12-01T01:31:16.226Z,96311.64
2023-12-01T01:35:02.426Z,96327.84
2023-12-01T01:38:15.085Z,96334.14
2023-12-01T01:42:01.464Z,96340.79
2023-12-01T01:45:48.000Z,96345.07
2023-12-01T01:49:34.215Z,96339.08
2023-12-01T01:53:20.824Z,96329.02
2023-12-01T01:56:58.967Z,96334.61
2023-12-01T02:03:45.416Z,96335.79
2023-12-01T02:06:14.924Z,96333.28
2023-12-01T02:08:45.135Z,96335.63
2023-12-01T02:11:15.024Z,96342.18
2023-12-01T02:13:48.627Z,96357.38
2023-12-01T02:16:15.569Z,96363.98
2023-12-01T02:18:44.078Z,96367.66
2023-12-01T02:21:12.846Z,96376.76
2023-12-01T02:23:40.369Z,96388.73
2023-12-01T02:26:12.101Z,96384.45
2023-12-01T02:28:39.054Z,96380.77
2023-12-01T02:31:06.781Z,96377.35
2023-12-01T02:33:38.349Z,96380.90
2023-12-01T02:36:13.233Z,96372.95
2023-12-01T02:38:46.932Z,96355.23
2023-12-01T02:41:17.334Z,96365.84
2023-12-01T02:43:46.110Z,96368.06
2023-12-01T02:46:13.514Z,96368.30
2023-12-01T02:48:41.417Z,96356.53
2023-12-01T02:51:09.407Z,96353.24
2023-12-01T02:53:37.916Z,96364.55
2023-12-01T02:56:11.010Z,96368.55
2023-12-01T02:58:38.414Z,96347.73
2023-12-01T03:01:07.650Z,96341.20
2023-12-01T03:03:55.398Z,96375.08
2023-12-01T03:06:44.757Z,96372.05
2023-12-01T03:09:24.193Z,96369.09
2023-12-01T03:12:13.355Z,96381.14
2023-12-01T03:14:40.450Z,96373.48
2023-12-01T03:17:47.935Z,96376.06
2023-12-01T03:20:29.858Z,96366.61
2023-12-01T03:23:16.308Z,96376.33
2023-12-01T03:26:03.003Z,96382.52
2023-12-01T03:28:39.114Z,96380.81
2023-12-01T03:31:09.360Z,96385.61
2023-12-01T03:33:41.596Z,96388.02
2023-12-01T03:36:09.480Z,96380.71
2023-12-01T03:38:57.358Z,96375.48
2023-12-01T03:41:25.426Z,96367.70
2023-12-01T03:43:52.060Z,96366.67
2023-12-01T03:46:22.764Z,96355.67
2023-12-01T03:49:09.344Z,96345.23
2023-12-01T03:51:57.830Z,96342.80
2023-12-01T03:54:24.666Z,96369.35
2023-12-01T03:56:53.778Z,96369.52
2023-12-01T03:59:23.864Z,96345.73
2023-12-01T04:02:10.586Z,96334.43
2023-12-01T04:04:43.370Z,96344.65
2023-12-01T04:07:10.565Z,96352.31
2023-12-01T04:09:39.758Z,96333.66
2023-12-01T04:12:11.505Z,96337.53
2023-12-01T04:14:39.308Z,96346.52
2023-12-01T04:17:16.044Z,96341.96
2023-12-01T04:20:22.124Z,96341.14
2023-12-01T04:22:58.398Z,96344.90
2023-12-01T04:25:26.643Z,96339.41
2023-12-01T04:27:57.537Z,96333.70
2023-12-01T04:30:25.485Z,96336.47
2023-12-01T04:32:58.679Z,96334.79
2023-12-01T04:35:33.490Z,96335.11
2023-12-01T04:38:23.937Z,96335.36
2023-12-01T04:40:51.464Z,96352.42
2023-12-01T04:43:21.118Z,96361.65
2023-12-01T04:46:07.787Z,96351.96
2023-12-01T04:48:35.135Z,96345.05
2023-12-01T04:51:01.941Z,96347.34
2023-12-01T04:53:29.123Z,96354.34
2023-12-01T04:55:57.773Z,96358.80
2023-12-01T04:58:25.237Z,96363.24
2023-12-01T05:00:52.597Z,96365.55
2023-12-01T05:03:19.332Z,96362.96
2023-12-01T05:05:47.320Z,96364.85
2023-12-01T05:08:13.944Z,96357.64
2023-12-01T05:10:45.697Z,96349.26
2023-12-01T05:13:16.906Z,96353.11
2023-12-01T05:15:45.196Z,96382.54
2023-12-01T05:18:12.580Z,96385.15
2023-12-01T05:20:40.511Z,96379.48
2023-12-01T05:23:13.061Z,96375.74
2023-12-01T05:25:42.146Z,96380.36
2023-12-01T05:29:09.364Z,96383.10
2023-12-01T05:32:56.547Z,96385.73
2023-12-01T05:36:43.777Z,96375.89
2023-12-01T05:40:17.763Z,96370.73
2023-12-01T05:44:04.612Z,96372.14
2023-12-01T05:47:35.812Z,96388.98
2023-12-01T05:51:26.818Z,96381.27
2023-12-01T05:55:14.102Z,96380.52
2023-12-01T05:59:00.571Z,96407.15
2023-12-01T06:02:47.497Z,96403.11
2023-12-01T06:06:34.595Z,96389.62
2023-12-01T06:10:21.573Z,96385.95
2023-12-01T06:14:08.308Z,96397.55
2023-12-01T06:17:56.230Z,96387.54
2023-12-01T06:21:43.311Z,96389.21
2023-12-01T06:25:18.633Z,96388.33
2023-12-01T06:29:05.330Z,96400.96
2023-12-01T06:32:52.177Z,96399.89
2023-12-01T06:36:39.285Z,96383.93
2023-12-01T06:40:35.673Z,96384.73
2023-12-01T06:44:21.682Z,96394.23
2023-12-01T06:48:08.619Z,96400.05
2023-12-01T06:51:55.470Z,96400.65
2023-12-01T06:55:44.780Z,96400.85
2023-12-01T06:59:22.348Z,96402.73
2023-12-01T07:03:09.873Z,96416.85
2023-12-01T07:06:56.256Z,96411.84
2023-12-01T07:10:42.918Z,96409.21
2023-12-01T07:14:31.025Z,96421.76
2023-12-01T07:18:21.192Z,96425.25
2023-12-01T07:22:08.031Z,96440.60
2023-12-01T07:25:56.176Z,96452.98
2023-12-01T07:29:44.956Z,96458.42
2023-12-01T07:33:31.913Z,96459.70
2023-12-01T07:37:21.896Z,96469.31
2023-12-01T07:41:09.139Z,96463.82
2023-12-01T07:44:56.517Z,96459.15
2023-12-01T07:48:45.323Z,96453.85
2023-12-01T07:52:32.259Z,96458.20
2023-12-01T07:56:19.067Z,96448.96
2023-12-01T08:00:05.928Z,96444.52
2023-12-01T08:03:52.941Z,96452.22
2023-12-01T08:11:27.341Z,96468.45
2023-12-01T08:15:14.889Z,96462.70
2023-12-01T08:19:02.568Z,96461.08
2023-12-01T08:22:52.647Z,96450.96
2023-12-01T08:26:42.700Z,96458.57
2023-12-01T08:30:28.663Z,96466.03
2023-12-01T08:34:22.455Z,96482.48
2023-12-01T08:38:02.919Z,96482.91
2023-12-01T08:41:50.478Z,96482.77
2023-12-01T08:45:41.610Z,96485.23
2023-12-01T08:49:28.126Z,96494.94
2023-12-01T08:53:16.153Z,96499.23
2023-12-01T08:57:03.278Z,96488.02
2023-12-01T09:04:44.074Z,96490.63
2023-12-01T09:08:38.338Z,96492.44
2023-12-01T09:12:25.746Z,96488.88
2023-12-01T09:16:12.960Z,96484.69
2023-12-01T09:20:03.047Z,96490.60
2023-12-01T09:23:50.394Z,96483.29
2023-12-01T09:27:39.282Z,96487.10
2023-12-01T09:31:27.811Z,96499.00
2023-12-01T09:35:53.492Z,96490.91
2023-12-01T09:39:07.824Z,96498.14
2023-12-01T09:42:55.650Z,96502.35
2023-12-01T09:46:43.085Z,96506.66
2023-12-01T09:50:41.616Z,96503.00
2023-12-01T09:54:28.962Z,96497.54
2023-12-01T09:58:16.312Z,96497.56
2023-12-01T10:02:03.707Z,96508.82
2023-12-01T10:05:51.999Z,96508.85
2023-12-01T10:09:39.458Z,96484.73
2023-12-01T10:13:35.550Z,96467.75
2023-12-01T10:17:23.128Z,96457.44
2023-12-01T10:21:10.449Z,96464.80
2023-12-01T10:25:00.908Z,96481.94
2023-12-01T10:28:48.060Z,96486.19
2023-12-01T10:32:35.406Z,96473.91
2023-12-01T10:36:23.517Z,96472.57
2023-12-01T10:40:11.197Z,96483.80
2023-12-01T10:44:00.004Z,96496.23
2023-12-01T10:47:51.325Z,96468.93
2023-12-01T10:51:38.524Z,96467.24
2023-12-01T10:55:29.431Z,96457.02
2023-12-01T10:59:16.884Z,96446.22
2023-12-01T11:03:04.936Z,96454.25
2023-12-01T11:06:51.936Z,96458.98
2023-12-01T11:10:57.154Z,96455.65
2023-12-01T11:14:50.109Z,96466.84
2023-12-01T11:18:39.003Z,96466.44
2023-12-01T11:22:26.004Z,96466.88
2023-12-01T11:26:22.500Z,96460.36
2023-12-01T11:30:12.564Z,96462.53
2023-12-01T11:34:00.135Z,96455.76
2023-12-01T11:37:50.597Z,96439.66
2023-12-01T11:41:40.564Z,96437.85
2023-12-01T11:45:37.462Z,96438.55
2023-12-01T11:49:27.375Z,96457.17
2023-12-01T11:53:17.406Z,96459.86
2023-12-01T11:57:05.023Z,96463.04
2023-12-01T12:01:01.579Z,96467.49
2023-12-01T12:04:49.302Z,96468.91
2023-12-01T12:08:36.483Z,96465.13
2023-12-01T12:12:23.817Z,96490.01
2023-12-01T12:16:11.538Z,96475.72
2023-12-01T12:20:09.510Z,96480.19
2023-12-01T12:23:53.024Z,96479.39
2023-12-01T12:27:40.547Z,96470.50
2023-12-01T12:31:27.975Z,96492.31
2023-12-01T12:35:15.347Z,96517.31
2023-12-01T12:39:02.591Z,96525.01
2023-12-01T12:42:52.842Z,96504.11
2023-12-01T12:46:40.386Z,96506.50
2023-12-01T12:50:29.176Z,96527.79
2023-12-01T12:54:18.120Z,96524.17
2023-12-01T12:58:05.012Z,96510.95
2023-12-01T13:01:52.355Z,96512.73
2023-12-01T13:05:39.987Z,96503.73
2023-12-01T13:09:30.149Z,96502.10
2023-12-01T13:13:17.339Z,96505.21
2023-12-01T13:17:05.041Z,96508.48
2023-12-01T13:20:52.532Z,96491.29
2023-12-01T13:24:40.012Z,96480.83
2023-12-01T13:28:27.235Z,96475.93
2023-12-01T13:32:14.907Z,96460.41
2023-12-01T13:36:04.096Z,96464.73
2023-12-01T13:39:51.131Z,96458.27
2023-12-01T13:43:39.125Z,96467.45
2023-12-01T13:47:26.197Z,96471.51
2023-12-01T13:51:15.947Z,96488.93
2023-12-01T13:55:03.311Z,96492.89
2023-12-01T13:58:53.035Z,96500.95
2023-12-01T14:02:41.816Z,96506.74
2023-12-01T14:06:29.197Z,96507.67
2023-12-01T14:10:19.285Z,96513.95
2023-12-01T14:17:51.588Z,96504.20
2023-12-01T14:21:38.794Z,96522.85
2023-12-01T14:25:26.237Z,96528.98
2023-12-01T14:29:18.103Z,96528.45
2023-12-01T14:33:05.471Z,96526.80
2023-12-01T14:36:52.920Z,96536.08
2023-12-01T14:40:41.979Z,96553.92
2023-12-01T14:44:29.169Z,96550.40
2023-12-01T14:48:16.909Z,96547.11
2023-12-01T14:52:03.973Z,96553.23
2023-12-01T14:55:51.966Z,96565.77
2023-12-01T14:59:44.167Z,96553.52
2023-12-01T15:03:31.572Z,96536.94
2023-12-01T15:07:19.682Z,96529.80
2023-12-01T15:11:07.329Z,96517.33
2023-12-01T15:14:54.697Z,96516.39
2023-12-01T15:18:41.961Z,96530.27
2023-12-01T15:22:30.472Z,96534.43
2023-12-01T15:26:19.421Z,96531.38
2023-12-01T15:30:06.689Z,96521.27
2023-12-01T15:33:53.768Z,96513.73
2023-12-01T15:37:45.668Z,96515.44
2023-12-01T15:41:33.001Z,96509.55
2023-12-01T15:45:23.491Z,96531.40
2023-12-01T15:49:12.916Z,96536.48
2023-12-01T15:53:00.309Z,96530.25
2023-12-01T15:56:49.147Z,96529.30
2023-12-01T16:00:40.222Z,96534.88
2023-12-01T16:04:27.121Z,96523.48
2023-12-01T16:08:14.435Z,96538.95
2023-12-01T16:12:01.724Z,96544.19
2023-12-01T16:15:48.934Z,96559.10
2023-12-01T16:19:38.757Z,96564.08
2023-12-01T16:23:25.793Z,96557.34
2023-12-01T16:27:13.085Z,96555.77
2023-12-01T16:31:00.576Z,96555.94
2023-12-01T16:34:47.838Z,96553.25
2023-12-01T16:38:35.185Z,96551.35
2023-12-01T16:42:22.361Z,96564.16
2023-12-01T16:46:10.955Z,96566.50
2023-12-01T16:49:57.925Z,96569.58
2023-12-01T16:53:45.252Z,96571.83
2023-12-01T16:57:32.405Z,96566.36
2023-12-01T17:01:20.942Z,96554.08
2023-12-01T17:05:10.876Z,96549.95
2023-12-01T17:09:00.092Z,96554.52
2023-12-01T17:12:45.295Z,96560.79
2023-12-01T17:16:32.259Z,96565.00
2023-12-01T17:20:20.573Z,96560.85
2023-12-01T17:24:07.872Z,96559.96
2023-12-01T17:27:55.147Z,96558.61
2023-12-01T17:31:42.388Z,96563.98
2023-12-01T17:35:30.014Z,96581.60
2023-12-01T17:39:17.381Z,96576.76
2023-12-01T17:43:04.767Z,96575.13
2023-12-01T17:46:52.988Z,96572.70
2023-12-01T17:50:41.579Z,96551.35
2023-12-01T17:54:28.869Z,96560.89
2023-12-01T17:58:16.319Z,96571.02
2023-12-01T18:02:04.687Z,96573.20
2023-12-01T18:05:51.728Z,96586.44
2023-12-01T18:09:42.295Z,96585.33
2023-12-01T18:13:31.974Z,96568.84
2023-12-01T18:17:19.143Z,96563.46
2023-12-01T18:21:08.207Z,96578.60
2023-12-01T18:25:20.990Z,96593.59
2023-12-01T18:29:09.621Z,96587.59
2023-12-01T18:32:57.037Z,96583.68
2023-12-01T18:36:45.345Z,96579.64
2023-12-01T18:40:32.214Z,96575.41
2023-12-01T18:44:19.385Z,96556.83
2023-12-01T18:47:48.688Z,96554.46
2023-12-01T18:51:28.764Z,96557.98
2023-12-01T18:54:16.750Z,96565.27
2023-12-01T18:57:56.598Z,96568.39
2023-12-01T19:01:42.932Z,96570.73
2023-12-01T19:05:10.659Z,96575.32
2023-12-01T19:08:36.933Z,96573.73
2023-12-01T19:12:03.940Z,96570.85
2023-12-01T19:15:30.366Z,96568.55
2023-12-01T19:19:16.996Z,96575.05
2023-12-01T19:22:35.441Z,96576.83
2023-12-01T19:26:05.885Z,96581.55
2023-12-01T19:29:53.187Z,96576.56
2023-12-01T19:33:40.702Z,96573.70
2023-12-01T19:37:27.696Z,96580.96
2023-12-01T19:41:14.613Z,96586.87
2023-12-01T19:45:01.503Z,96593.16
2023-12-01T19:48:32.932Z,96583.61
2023-12-01T19:52:06.216Z,96584.43
2023-12-01T19:55:53.218Z,96597.42
2023-12-01T19:59:39.636Z,96613.70
2023-12-01T20:03:27.010Z,96606.14
2023-12-01T20:06:48.593Z,96587.89
2023-12-01T20:10:34.805Z,96590.13
2023-12-01T20:14:06.732Z,96603.98
2023-12-01T20:17:40.642Z,96594.34
2023-12-01T20:21:27.039Z,96597.89
2023-12-01T20:25:14.261Z,96602.54
2023-12-01T20:29:01.362Z,96608.85
2023-12-01T20:32:48.740Z,96608.30
2023-12-01T20:36:35.118Z,96611.36
2023-12-01T20:40:21.408Z,96594.77
2023-12-01T20:43:49.476Z,96583.22
2023-12-01T20:47:15.943Z,96580.01
2023-12-01T20:50:43.862Z,96573.30
2023-12-01T20:54:34.872Z,96566.83
2023-12-01T20:58:21.971Z,96565.43
2023-12-01T21:02:10.800Z,96577.80
2023-12-01T21:05:57.286Z,96577.15
2023-12-01T21:09:44.050Z,96577.89
2023-12-01T21:13:30.939Z,96589.42
2023-12-01T21:17:18.281Z,96592.82
2023-12-01T21:24:49.468Z,96591.98
2023-12-01T21:28:36.845Z,96584.77
2023-12-01T21:32:25.209Z,96561.73
2023-12-01T21:36:12.275Z,96546.06
2023-12-01T21:39:58.899Z,96542.40
2023-12-01T21:43:46.400Z,96542.30
2023-12-01T21:47:34.891Z,96540.23
2023-12-01T21:51:21.818Z,96546.09
2023-12-01T21:55:09.863Z,96556.80
2023-12-01T21:58:57.095Z,96546.33
2023-12-01T22:02:44.218Z,96544.38
2023-12-01T22:06:34.005Z,96525.96
2023-12-01T22:10:20.886Z,96520.36
2023-12-01T22:14:08.332Z,96536.73
2023-12-01T22:17:57.112Z,96543.05
2023-12-01T22:21:44.139Z,96541.66
2023-12-01T22:25:30.801Z,96531.14
2023-12-01T22:29:17.578Z,96528.66
2023-12-01T22:33:05.206Z,96526.52
2023-12-01T22:36:52.342Z,96550.04
2023-12-01T22:40:39.300Z,96552.59
2023-12-01T22:44:30.587Z,96558.90
2023-12-01T22:48:18.179Z,96556.00
2023-12-01T22:52:06.738Z,96554.80
2023-12-01T22:55:54.157Z,96570.15
2023-12-01T22:59:41.412Z,96587.16
2023-12-01T23:03:29.388Z,96592.13
2023-12-01T23:07:02.133Z,96594.51
2023-12-01T23:10:48.522Z,96592.58
2023-12-01T23:14:07.999Z,96584.75
2023-12-01T23:17:37.006Z,96588.63
2023-12-01T23:21:23.643Z,96593.47
2023-12-01T23:25:10.614Z,96579.13
2023-12-01T23:28:56.113Z,96548.17
2023-12-01T23:32:33.219Z,96555.72
2023-12-01T23:36:19.933Z,96531.28
2023-12-01T23:40:06.130Z,96540.44
2023-12-01T23:43:52.564Z,96556.56
2023-12-01T23:47:38.704Z,96534.55
2023-12-01T23:50:49.684Z,96514.55
2023-12-01T23:54:18.974Z,96518.57
2023-12-01T23:57:58.269Z,96511.20
